sensor_id;sensor_type;location;lat;lon;timestamp;temperature;humidity
52609;DHT22;38503;48.544;12.142;2023-01-25T00:00:28;1.60;99.90
52609;DHT22;38503;48.544;12.142;2023-01-25T00:02:54;1.60;99.90
52609;DHT22;38503;48.544;12.142;2023-01-25T00:05:21;1.60;99.90
52609;DHT22;38503;48.544;12.142;2023-01-25T00:07:48;1.60;99.90
52609;DHT22;38503;48.544;12.142;2023-01-25T00:10:15;1.60;99.90
52609;DHT22;38503;48.544;12.142;2023-01-25T00:12:42;1.50;99.90
52609;DHT22;38503;48.544;12.142;2023-01-25T00:15:09;1.50;99.90
52609;DHT22;38503;48.544;12.142;2023-01-25T00:17:36;1.60;99.90
52609;DHT22;38503;48.544;12.142;2023-01-25T00:20:03;1.60;99.90
52609;DHT22;38503;48.544;12.142;2023-01-25T00:22:30;1.50;99.90
52609;DHT22;38503;48.544;12.142;2023-01-25T00:24:57;1.60;99.90
52609;DHT22;38503;48.544;12.142;2023-01-25T00:27:24;1.50;99.90
52609;DHT22;38503;48.544;12.142;2023-01-25T00:29:50;1.50;99.90
52609;DHT22;38503;48.544;12.142;2023-01-25T00:34:48;1.60;99.90
52609;DHT22;38503;48.544;12.142;2023-01-25T00:37:38;1.60;99.90
52609;DHT22;38503;48.544;12.142;2023-01-25T00:40:06;1.60;99.90
52609;DHT22;38503;48.544;12.142;2023-01-25T00:42:32;1.60;99.90
52609;DHT22;38503;48.544;12.142;2023-01-25T00:44:59;1.50;99.90
52609;DHT22;38503;48.544;12.142;2023-01-25T00:47:26;1.60;99.90
52609;DHT22;38503;48.544;12.142;2023-01-25T00:49:53;1.50;99.90
52609;DHT22;38503;48.544;12.142;2023-01-25T00:52:20;1.50;99.90
52609;DHT22;38503;48.544;12.142;2023-01-25T00:54:48;1.50;99.90
52609;DHT22;38503;48.544;12.142;2023-01-25T00:57:15;1.50;99.90
52609;DHT22;38503;48.544;12.142;2023-01-25T00:59:42;1.40;99.90
52609;DHT22;38503;48.544;12.142;2023-01-25T01:02:11;1.30;99.90
52609;DHT22;38503;48.544;12.142;2023-01-25T01:04:37;1.40;99.90
52609;DHT22;38503;48.544;12.142;2023-01-25T01:07:05;1.30;99.90
52609;DHT22;38503;48.544;12.142;2023-01-25T01:09:31;1.30;99.90
52609;DHT22;38503;48.544;12.142;2023-01-25T01:11:59;1.30;99.90
52609;DHT22;38503;48.544;12.142;2023-01-25T01:14:26;1.30;99.90
52609;DHT22;38503;48.544;12.142;2023-01-25T01:16:53;1.20;99.90
52609;DHT22;38503;48.544;12.142;2023-01-25T01:19:22;1.20;99.90
52609;DHT22;38503;48.544;12.142;2023-01-25T01:21:49;1.20;99.90
52609;DHT22;38503;48.544;12.142;2023-01-25T01:24:16;1.20;99.90
52609;DHT22;38503;48.544;12.142;2023-01-25T01:26:43;1.20;99.90
52609;DHT22;38503;48.544;12.142;2023-01-25T01:29:12;1.10;99.90
52609;DHT22;38503;48.544;12.142;2023-01-25T01:31:39;1.10;99.90
52609;DHT22;38503;48.544;12.142;2023-01-25T01:34:06;1.20;99.90
52609;DHT22;38503;48.544;12.142;2023-01-25T01:36:33;1.10;99.90
52609;DHT22;38503;48.544;12.142;2023-01-25T01:39:00;1.10;99.90
52609;DHT22;38503;48.544;12.142;2023-01-25T01:41:27;1.10;99.90
52609;DHT22;38503;48.544;12.142;2023-01-25T01:43:53;1.10;99.90
52609;DHT22;38503;48.544;12.142;2023-01-25T01:46:32;1.20;99.90
52609;DHT22;38503;48.544;12.142;2023-01-25T01:49:11;1.10;99.90
52609;DHT22;38503;48.544;12.142;2023-01-25T01:51:49;1.10;99.90
52609;DHT22;38503;48.544;12.142;2023-01-25T01:54:25;1.00;99.90
52609;DHT22;38503;48.544;12.142;2023-01-25T01:57:05;1.00;99.90
52609;DHT22;38503;48.544;12.142;2023-01-25T01:59:51;1.00;99.90
52609;DHT22;38503;48.544;12.142;2023-01-25T02:02:19;1.00;99.90
52609;DHT22;38503;48.544;12.142;2023-01-25T02:04:48;1.10;99.90
52609;DHT22;38503;48.544;12.142;2023-01-25T02:09:42;1.00;99.90
52609;DHT22;38503;48.544;12.142;2023-01-25T02:12:10;1.00;99.90
52609;DHT22;38503;48.544;12.142;2023-01-25T02:14:44;1.00;99.90
52609;DHT22;38503;48.544;12.142;2023-01-25T02:17:28;1.00;99.90
52609;DHT22;38503;48.544;12.142;2023-01-25T02:25:29;1.00;99.90
52609;DHT22;38503;48.544;12.142;2023-01-25T02:30:41;1.00;99.90
52609;DHT22;38503;48.544;12.142;2023-01-25T02:33:08;1.00;99.90
52609;DHT22;38503;48.544;12.142;2023-01-25T02:35:38;0.90;99.90
52609;DHT22;38503;48.544;12.142;2023-01-25T02:38:06;0.80;99.90
52609;DHT22;38503;48.544;12.142;2023-01-25T02:40:59;0.90;99.90
52609;DHT22;38503;48.544;12.142;2023-01-25T02:43:30;0.90;99.90
52609;DHT22;38503;48.544;12.142;2023-01-25T02:46:12;0.90;99.90
52609;DHT22;38503;48.544;12.142;2023-01-25T02:48:40;0.90;99.90
52609;DHT22;38503;48.544;12.142;2023-01-25T02:51:08;0.80;99.90
52609;DHT22;38503;48.544;12.142;2023-01-25T02:53:35;0.80;99.90
52609;DHT22;38503;48.544;12.142;2023-01-25T02:56:02;0.90;99.90
52609;DHT22;38503;48.544;12.142;2023-01-25T02:58:29;0.80;99.90
52609;DHT22;38503;48.544;12.142;2023-01-25T03:00:57;0.90;99.90
52609;DHT22;38503;48.544;12.142;2023-01-25T03:03:24;0.80;99.90
52609;DHT22;38503;48.544;12.142;2023-01-25T03:05:51;0.90;99.90
52609;DHT22;38503;48.544;12.142;2023-01-25T03:08:17;0.80;99.90
52609;DHT22;38503;48.544;12.142;2023-01-25T03:10:44;0.90;99.90
52609;DHT22;38503;48.544;12.142;2023-01-25T03:13:11;0.90;99.90
52609;DHT22;38503;48.544;12.142;2023-01-25T03:15:38;0.80;99.90
52609;DHT22;38503;48.544;12.142;2023-01-25T03:18:04;0.80;99.90
52609;DHT22;38503;48.544;12.142;2023-01-25T03:20:31;0.90;99.90
52609;DHT22;38503;48.544;12.142;2023-01-25T03:22:58;0.80;99.90
52609;DHT22;38503;48.544;12.142;2023-01-25T03:25:25;0.80;99.90
52609;DHT22;38503;48.544;12.142;2023-01-25T03:27:52;0.80;99.90
52609;DHT22;38503;48.544;12.142;2023-01-25T03:30:19;0.80;99.90
52609;DHT22;38503;48.544;12.142;2023-01-25T03:32:46;0.90;99.90
52609;DHT22;38503;48.544;12.142;2023-01-25T03:35:13;0.80;99.90
52609;DHT22;38503;48.544;12.142;2023-01-25T03:37:40;0.90;99.90
52609;DHT22;38503;48.544;12.142;2023-01-25T03:40:07;0.90;99.90
52609;DHT22;38503;48.544;12.142;2023-01-25T03:42:34;0.90;99.90
52609;DHT22;38503;48.544;12.142;2023-01-25T03:45:01;0.90;99.90
52609;DHT22;38503;48.544;12.142;2023-01-25T03:47:28;0.90;99.90
52609;DHT22;38503;48.544;12.142;2023-01-25T03:49:55;0.90;99.90
52609;DHT22;38503;48.544;12.142;2023-01-25T03:52:21;1.00;99.90
52609;DHT22;38503;48.544;12.142;2023-01-25T03:54:50;0.90;99.90
52609;DHT22;38503;48.544;12.142;2023-01-25T03:57:16;0.90;99.90
52609;DHT22;38503;48.544;12.142;2023-01-25T03:59:43;0.90;99.90
52609;DHT22;38503;48.544;12.142;2023-01-25T04:02:10;0.80;99.90
52609;DHT22;38503;48.544;12.142;2023-01-25T04:04:38;0.90;99.90
52609;DHT22;38503;48.544;12.142;2023-01-25T04:07:05;0.90;99.90
52609;DHT22;38503;48.544;12.142;2023-01-25T04:09:31;0.80;99.90
52609;DHT22;38503;48.544;12.142;2023-01-25T04:11:58;0.80;99.90
52609;DHT22;38503;48.544;12.142;2023-01-25T04:14:25;0.80;99.90
52609;DHT22;38503;48.544;12.142;2023-01-25T04:17:09;0.80;99.90
52609;DHT22;38503;48.544;12.142;2023-01-25T04:19:36;0.70;99.90
52609;DHT22;38503;48.544;12.142;2023-01-25T04:22:03;0.70;99.90
52609;DHT22;38503;48.544;12.142;2023-01-25T04:24:30;0.70;99.90
52609;DHT22;38503;48.544;12.142;2023-01-25T04:26:56;0.70;99.90
52609;DHT22;38503;48.544;12.142;2023-01-25T04:29:23;0.70;99.90
52609;DHT22;38503;48.544;12.142;2023-01-25T04:32:05;0.70;99.90
52609;DHT22;38503;48.544;12.142;2023-01-25T04:34:32;0.70;99.90
52609;DHT22;38503;48.544;12.142;2023-01-25T04:36:59;0.70;99.90
52609;DHT22;38503;48.544;12.142;2023-01-25T04:39:26;0.70;99.90
52609;DHT22;38503;48.544;12.142;2023-01-25T04:41:52;0.70;99.90
52609;DHT22;38503;48.544;12.142;2023-01-25T04:44:19;0.80;99.90
52609;DHT22;38503;48.544;12.142;2023-01-25T04:46:46;0.80;99.90
52609;DHT22;38503;48.544;12.142;2023-01-25T04:49:14;0.80;99.90
52609;DHT22;38503;48.544;12.142;2023-01-25T04:51:41;0.80;99.90
52609;DHT22;38503;48.544;12.142;2023-01-25T04:54:07;0.80;99.90
52609;DHT22;38503;48.544;12.142;2023-01-25T04:56:34;0.80;99.90
52609;DHT22;38503;48.544;12.142;2023-01-25T04:59:01;0.80;99.90
52609;DHT22;38503;48.544;12.142;2023-01-25T05:01:28;0.70;99.90
52609;DHT22;38503;48.544;12.142;2023-01-25T05:03:55;0.70;99.90
52609;DHT22;38503;48.544;12.142;2023-01-25T05:06:21;0.60;99.90
52609;DHT22;38503;48.544;12.142;2023-01-25T05:08:48;0.60;99.90
52609;DHT22;38503;48.544;12.142;2023-01-25T05:11:15;0.60;99.90
52609;DHT22;38503;48.544;12.142;2023-01-25T05:13:42;0.60;99.90
52609;DHT22;38503;48.544;12.142;2023-01-25T05:16:08;0.60;99.90
52609;DHT22;38503;48.544;12.142;2023-01-25T05:18:35;0.60;99.90
52609;DHT22;38503;48.544;12.142;2023-01-25T05:21:14;0.60;99.90
52609;DHT22;38503;48.544;12.142;2023-01-25T05:23:59;0.60;99.90
52609;DHT22;38503;48.544;12.142;2023-01-25T05:26:26;0.60;99.90
52609;DHT22;38503;48.544;12.142;2023-01-25T05:29:12;0.50;99.90
52609;DHT22;38503;48.544;12.142;2023-01-25T05:31:38;0.60;99.90
52609;DHT22;38503;48.544;12.142;2023-01-25T05:34:05;0.60;99.90
52609;DHT22;38503;48.544;12.142;2023-01-25T05:36:32;0.60;99.90
52609;DHT22;38503;48.544;12.142;2023-01-25T05:38:59;0.60;99.90
52609;DHT22;38503;48.544;12.142;2023-01-25T05:41:26;0.70;99.90
52609;DHT22;38503;48.544;12.142;2023-01-25T05:43:52;0.70;99.90
52609;DHT22;38503;48.544;12.142;2023-01-25T05:46:19;0.70;99.90
52609;DHT22;38503;48.544;12.142;2023-01-25T05:48:47;0.70;99.90
52609;DHT22;38503;48.544;12.142;2023-01-25T05:51:14;0.70;99.90
52609;DHT22;38503;48.544;12.142;2023-01-25T05:53:40;0.70;99.90
52609;DHT22;38503;48.544;12.142;2023-01-25T05:56:08;0.70;99.90
52609;DHT22;38503;48.544;12.142;2023-01-25T05:58:37;0.70;99.90
52609;DHT22;38503;48.544;12.142;2023-01-25T06:01:05;0.60;99.90
52609;DHT22;38503;48.544;12.142;2023-01-25T06:03:33;0.60;99.90
52609;DHT22;38503;48.544;12.142;2023-01-25T06:06:01;0.60;99.90
52609;DHT22;38503;48.544;12.142;2023-01-25T06:08:31;0.60;99.90
52609;DHT22;38503;48.544;12.142;2023-01-25T06:10:58;0.60;99.90
52609;DHT22;38503;48.544;12.142;2023-01-25T06:13:25;0.60;99.90
52609;DHT22;38503;48.544;12.142;2023-01-25T06:15:55;0.50;99.90
52609;DHT22;38503;48.544;12.142;2023-01-25T06:18:22;0.50;99.90
52609;DHT22;38503;48.544;12.142;2023-01-25T06:20:55;0.50;99.90
52609;DHT22;38503;48.544;12.142;2023-01-25T06:23:22;0.50;99.90
52609;DHT22;38503;48.544;12.142;2023-01-25T06:25:49;0.50;99.90
52609;DHT22;38503;48.544;12.142;2023-01-25T06:28:16;0.50;99.90
52609;DHT22;38503;48.544;12.142;2023-01-25T06:30:42;0.60;99.90
52609;DHT22;38503;48.544;12.142;2023-01-25T06:33:09;0.60;99.90
52609;DHT22;38503;48.544;12.142;2023-01-25T06:35:36;0.60;99.90
52609;DHT22;38503;48.544;12.142;2023-01-25T06:38:05;0.60;99.90
52609;DHT22;38503;48.544;12.142;2023-01-25T06:40:32;0.60;99.90
52609;DHT22;38503;48.544;12.142;2023-01-25T06:43:09;0.60;99.90
52609;DHT22;38503;48.544;12.142;2023-01-25T06:45:36;0.60;99.90
52609;DHT22;38503;48.544;12.142;2023-01-25T06:48:03;0.70;99.90
52609;DHT22;38503;48.544;12.142;2023-01-25T06:50:30;0.70;99.90
52609;DHT22;38503;48.544;12.142;2023-01-25T06:52:57;0.70;99.90
52609;DHT22;38503;48.544;12.142;2023-01-25T06:55:24;0.70;99.90
52609;DHT22;38503;48.544;12.142;2023-01-25T06:57:51;0.70;99.90
52609;DHT22;38503;48.544;12.142;2023-01-25T07:00:18;0.70;99.90
52609;DHT22;38503;48.544;12.142;2023-01-25T07:02:44;0.60;99.90
52609;DHT22;38503;48.544;12.142;2023-01-25T07:05:11;0.60;99.90
52609;DHT22;38503;48.544;12.142;2023-01-25T07:07:38;0.60;99.90
52609;DHT22;38503;48.544;12.142;2023-01-25T07:10:05;0.60;99.90
52609;DHT22;38503;48.544;12.142;2023-01-25T07:12:32;0.60;99.90
52609;DHT22;38503;48.544;12.142;2023-01-25T07:14:59;0.60;99.90
52609;DHT22;38503;48.544;12.142;2023-01-25T07:17:26;0.60;99.90
52609;DHT22;38503;48.544;12.142;2023-01-25T07:19:52;0.60;99.90
52609;DHT22;38503;48.544;12.142;2023-01-25T07:22:19;0.60;99.90
52609;DHT22;38503;48.544;12.142;2023-01-25T07:24:46;0.60;99.90
52609;DHT22;38503;48.544;12.142;2023-01-25T07:27:16;0.70;99.90
52609;DHT22;38503;48.544;12.142;2023-01-25T07:29:43;0.70;99.90
52609;DHT22;38503;48.544;12.142;2023-01-25T07:32:11;0.60;99.90
52609;DHT22;38503;48.544;12.142;2023-01-25T07:34:39;0.70;99.90
52609;DHT22;38503;48.544;12.142;2023-01-25T07:37:06;0.70;99.90
52609;DHT22;38503;48.544;12.142;2023-01-25T07:39:34;0.70;99.90
52609;DHT22;38503;48.544;12.142;2023-01-25T07:42:01;0.70;99.90
52609;DHT22;38503;48.544;12.142;2023-01-25T07:44:28;0.70;99.90
52609;DHT22;38503;48.544;12.142;2023-01-25T07:46:58;0.70;99.90
52609;DHT22;38503;48.544;12.142;2023-01-25T07:49:25;0.70;99.90
52609;DHT22;38503;48.544;12.142;2023-01-25T07:51:51;0.70;99.90
52609;DHT22;38503;48.544;12.142;2023-01-25T07:54:18;0.70;99.90
52609;DHT22;38503;48.544;12.142;2023-01-25T07:56:45;0.60;99.90
52609;DHT22;38503;48.544;12.142;2023-01-25T07:59:12;0.70;99.90
52609;DHT22;38503;48.544;12.142;2023-01-25T08:01:39;0.70;99.90
52609;DHT22;38503;48.544;12.142;2023-01-25T08:04:07;0.70;99.90
52609;DHT22;38503;48.544;12.142;2023-01-25T08:06:36;0.70;99.90
52609;DHT22;38503;48.544;12.142;2023-01-25T08:09:11;0.70;99.90
52609;DHT22;38503;48.544;12.142;2023-01-25T08:11:38;0.70;99.90
52609;DHT22;38503;48.544;12.142;2023-01-25T08:14:05;0.70;99.90
52609;DHT22;38503;48.544;12.142;2023-01-25T08:16:32;0.70;99.90
52609;DHT22;38503;48.544;12.142;2023-01-25T08:19:01;0.60;99.90
52609;DHT22;38503;48.544;12.142;2023-01-25T08:21:31;0.60;99.90
52609;DHT22;38503;48.544;12.142;2023-01-25T08:24:00;0.60;99.90
52609;DHT22;38503;48.544;12.142;2023-01-25T08:26:29;0.50;99.90
52609;DHT22;38503;48.544;12.142;2023-01-25T08:28:56;0.50;99.90
52609;DHT22;38503;48.544;12.142;2023-01-25T08:31:29;0.50;99.90
52609;DHT22;38503;48.544;12.142;2023-01-25T08:33:57;0.50;99.90
52609;DHT22;38503;48.544;12.142;2023-01-25T08:36:25;0.50;99.90
52609;DHT22;38503;48.544;12.142;2023-01-25T08:38:56;0.50;99.90
52609;DHT22;38503;48.544;12.142;2023-01-25T08:41:23;0.50;99.90
52609;DHT22;38503;48.544;12.142;2023-01-25T08:43:52;0.60;99.90
52609;DHT22;38503;48.544;12.142;2023-01-25T08:46:21;0.60;99.90
52609;DHT22;38503;48.544;12.142;2023-01-25T08:48:56;0.60;99.90
52609;DHT22;38503;48.544;12.142;2023-01-25T08:51:24;0.60;99.90
52609;DHT22;38503;48.544;12.142;2023-01-25T08:53:51;0.60;99.90
52609;DHT22;38503;48.544;12.142;2023-01-25T08:56:18;0.60;99.90
52609;DHT22;38503;48.544;12.142;2023-01-25T08:58:47;0.60;99.90
52609;DHT22;38503;48.544;12.142;2023-01-25T09:01:16;0.60;99.90
52609;DHT22;38503;48.544;12.142;2023-01-25T09:03:44;0.60;99.90
52609;DHT22;38503;48.544;12.142;2023-01-25T09:06:12;0.50;99.90
52609;DHT22;38503;48.544;12.142;2023-01-25T09:08:40;0.50;99.90
52609;DHT22;38503;48.544;12.142;2023-01-25T09:11:12;0.60;99.90
52609;DHT22;38503;48.544;12.142;2023-01-25T09:13:40;0.60;99.90
52609;DHT22;38503;48.544;12.142;2023-01-25T09:16:18;0.50;99.90
52609;DHT22;38503;48.544;12.142;2023-01-25T09:18:52;0.50;99.90
52609;DHT22;38503;48.544;12.142;2023-01-25T09:21:19;0.60;99.90
52609;DHT22;38503;48.544;12.142;2023-01-25T09:23:50;0.50;99.90
52609;DHT22;38503;48.544;12.142;2023-01-25T09:26:32;0.50;99.90
52609;DHT22;38503;48.544;12.142;2023-01-25T09:29:00;0.50;99.90
52609;DHT22;38503;48.544;12.142;2023-01-25T09:31:27;0.50;99.90
52609;DHT22;38503;48.544;12.142;2023-01-25T09:33:58;0.40;99.90
52609;DHT22;38503;48.544;12.142;2023-01-25T09:36:25;0.50;99.90
52609;DHT22;38503;48.544;12.142;2023-01-25T09:38:52;0.50;99.90
52609;DHT22;38503;48.544;12.142;2023-01-25T09:47:16;0.50;99.90
52609;DHT22;38503;48.544;12.142;2023-01-25T09:53:12;0.60;99.90
52609;DHT22;38503;48.544;12.142;2023-01-25T09:55:41;0.60;99.90
52609;DHT22;38503;48.544;12.142;2023-01-25T09:58:20;0.70;99.90
52609;DHT22;38503;48.544;12.142;2023-01-25T10:04:03;0.70;99.90
52609;DHT22;38503;48.544;12.142;2023-01-25T10:06:41;0.70;99.90
52609;DHT22;38503;48.544;12.142;2023-01-25T10:09:44;0.80;99.90
52609;DHT22;38503;48.544;12.142;2023-01-25T10:12:21;0.70;99.90
52609;DHT22;38503;48.544;12.142;2023-01-25T10:14:50;0.70;99.90
52609;DHT22;38503;48.544;12.142;2023-01-25T10:17:29;0.60;99.90
52609;DHT22;38503;48.544;12.142;2023-01-25T10:23:14;0.70;99.90
52609;DHT22;38503;48.544;12.142;2023-01-25T10:26:00;0.70;99.90
52609;DHT22;38503;48.544;12.142;2023-01-25T10:28:44;0.70;99.90
52609;DHT22;38503;48.544;12.142;2023-01-25T10:33:46;0.70;99.90
52609;DHT22;38503;48.544;12.142;2023-01-25T10:36:20;0.60;99.90
52609;DHT22;38503;48.544;12.142;2023-01-25T10:38:49;0.60;99.90
52609;DHT22;38503;48.544;12.142;2023-01-25T10:43:58;0.60;99.90
52609;DHT22;38503;48.544;12.142;2023-01-25T10:47:32;0.60;99.90
52609;DHT22;38503;48.544;12.142;2023-01-25T10:52:13;0.60;99.90
52609;DHT22;38503;48.544;12.142;2023-01-25T10:54:40;0.70;99.90
52609;DHT22;38503;48.544;12.142;2023-01-25T10:57:08;0.70;99.90
52609;DHT22;38503;48.544;12.142;2023-01-25T10:59:38;0.70;99.90
52609;DHT22;38503;48.544;12.142;2023-01-25T11:05:34;0.70;99.90
52609;DHT22;38503;48.544;12.142;2023-01-25T11:13:52;0.70;99.90
52609;DHT22;38503;48.544;12.142;2023-01-25T11:16:30;0.80;99.90
52609;DHT22;38503;48.544;12.142;2023-01-25T11:18:59;0.80;99.90
52609;DHT22;38503;48.544;12.142;2023-01-25T11:21:28;0.90;99.90
52609;DHT22;38503;48.544;12.142;2023-01-25T11:26:39;1.00;99.90
52609;DHT22;38503;48.544;12.142;2023-01-25T11:29:16;0.80;99.90
52609;DHT22;38503;48.544;12.142;2023-01-25T11:31:54;0.80;99.90
52609;DHT22;38503;48.544;12.142;2023-01-25T11:34:27;0.70;99.90
52609;DHT22;38503;48.544;12.142;2023-01-25T11:42:35;0.70;99.90
52609;DHT22;38503;48.544;12.142;2023-01-25T11:48:23;0.70;99.90
52609;DHT22;38503;48.544;12.142;2023-01-25T11:53:39;0.60;99.90
52609;DHT22;38503;48.544;12.142;2023-01-25T12:10:28;0.60;99.90
52609;DHT22;38503;48.544;12.142;2023-01-25T12:16:14;0.60;99.90
52609;DHT22;38503;48.544;12.142;2023-01-25T12:21:39;0.60;99.90
52609;DHT22;38503;48.544;12.142;2023-01-25T12:32:40;0.60;99.90
52609;DHT22;38503;48.544;12.142;2023-01-25T12:37:53;0.70;99.90
52609;DHT22;38503;48.544;12.142;2023-01-25T12:41:01;0.70;99.90
52609;DHT22;38503;48.544;12.142;2023-01-25T12:43:47;0.80;99.90
52609;DHT22;38503;48.544;12.142;2023-01-25T12:46:25;0.70;99.90
52609;DHT22;38503;48.544;12.142;2023-01-25T12:48:56;0.70;99.90
52609;DHT22;38503;48.544;12.142;2023-01-25T12:51:34;0.80;99.90
52609;DHT22;38503;48.544;12.142;2023-01-25T12:54:21;0.70;99.90
52609;DHT22;38503;48.544;12.142;2023-01-25T13:11:43;0.50;99.90
52609;DHT22;38503;48.544;12.142;2023-01-25T13:16:48;0.50;99.90
52609;DHT22;38503;48.544;12.142;2023-01-25T13:22:01;0.50;99.90
52609;DHT22;38503;48.544;12.142;2023-01-25T13:24:33;0.50;99.90
52609;DHT22;38503;48.544;12.142;2023-01-25T13:32:56;0.50;99.90
52609;DHT22;38503;48.544;12.142;2023-01-25T13:35:34;0.60;99.90
52609;DHT22;38503;48.544;12.142;2023-01-25T13:40:37;0.60;99.90
52609;DHT22;38503;48.544;12.142;2023-01-25T13:43:17;0.60;99.90
52609;DHT22;38503;48.544;12.142;2023-01-25T13:45:47;0.50;99.90
52609;DHT22;38503;48.544;12.142;2023-01-25T13:48:19;0.60;99.90
52609;DHT22;38503;48.544;12.142;2023-01-25T13:51:09;0.50;99.90
52609;DHT22;38503;48.544;12.142;2023-01-25T13:53:37;0.40;99.90
52609;DHT22;38503;48.544;12.142;2023-01-25T13:56:24;0.40;99.90
52609;DHT22;38503;48.544;12.142;2023-01-25T13:58:51;0.50;99.90
52609;DHT22;38503;48.544;12.142;2023-01-25T14:01:19;0.50;99.90
52609;DHT22;38503;48.544;12.142;2023-01-25T14:03:51;0.40;99.90
52609;DHT22;38503;48.544;12.142;2023-01-25T14:06:27;0.50;99.90
52609;DHT22;38503;48.544;12.142;2023-01-25T14:08:57;0.60;99.90
52609;DHT22;38503;48.544;12.142;2023-01-25T14:11:28;0.60;99.90
52609;DHT22;38503;48.544;12.142;2023-01-25T14:14:25;0.50;99.90
52609;DHT22;38503;48.544;12.142;2023-01-25T14:19:30;0.40;99.90
52609;DHT22;38503;48.544;12.142;2023-01-25T14:24:42;0.40;99.90
52609;DHT22;38503;48.544;12.142;2023-01-25T14:27:13;0.40;99.90
52609;DHT22;38503;48.544;12.142;2023-01-25T14:29:40;0.50;99.90
52609;DHT22;38503;48.544;12.142;2023-01-25T14:32:15;0.50;99.90
52609;DHT22;38503;48.544;12.142;2023-01-25T14:34:43;0.40;99.90
52609;DHT22;38503;48.544;12.142;2023-01-25T14:37:20;0.50;99.90
52609;DHT22;38503;48.544;12.142;2023-01-25T14:39:49;0.40;99.90
52609;DHT22;38503;48.544;12.142;2023-01-25T14:42:17;0.40;99.90
52609;DHT22;38503;48.544;12.142;2023-01-25T14:44:44;0.30;99.90
52609;DHT22;38503;48.544;12.142;2023-01-25T14:47:37;0.30;99.90
52609;DHT22;38503;48.544;12.142;2023-01-25T14:50:37;0.30;99.90
52609;DHT22;38503;48.544;12.142;2023-01-25T14:53:18;0.30;99.90
52609;DHT22;38503;48.544;12.142;2023-01-25T14:55:47;0.40;99.90
52609;DHT22;38503;48.544;12.142;2023-01-25T14:58:17;0.40;99.90
52609;DHT22;38503;48.544;12.142;2023-01-25T15:00:54;0.30;99.90
52609;DHT22;38503;48.544;12.142;2023-01-25T15:03:22;0.30;99.90
52609;DHT22;38503;48.544;12.142;2023-01-25T15:05:53;0.30;99.90
52609;DHT22;38503;48.544;12.142;2023-01-25T15:08:35;0.30;99.90
52609;DHT22;38503;48.544;12.142;2023-01-25T15:11:02;0.20;99.90
52609;DHT22;38503;48.544;12.142;2023-01-25T15:14:19;0.20;99.90
52609;DHT22;38503;48.544;12.142;2023-01-25T15:16:47;0.10;99.90
52609;DHT22;38503;48.544;12.142;2023-01-25T15:19:30;0.20;99.90
52609;DHT22;38503;48.544;12.142;2023-01-25T15:21:58;0.20;99.90
52609;DHT22;38503;48.544;12.142;2023-01-25T15:24:26;0.20;99.90
52609;DHT22;38503;48.544;12.142;2023-01-25T15:26:54;0.20;99.90
52609;DHT22;38503;48.544;12.142;2023-01-25T15:29:23;0.10;99.90
52609;DHT22;38503;48.544;12.142;2023-01-25T15:31:55;0.10;99.90
52609;DHT22;38503;48.544;12.142;2023-01-25T15:34:26;0.10;99.90
52609;DHT22;38503;48.544;12.142;2023-01-25T15:36:55;0.10;99.90
52609;DHT22;38503;48.544;12.142;2023-01-25T15:39:22;0.20;99.90
52609;DHT22;38503;48.544;12.142;2023-01-25T15:41:49;0.10;99.90
52609;DHT22;38503;48.544;12.142;2023-01-25T15:44:16;0.00;99.90
52609;DHT22;38503;48.544;12.142;2023-01-25T15:46:47;0.10;99.90
52609;DHT22;38503;48.544;12.142;2023-01-25T15:49:24;0.10;99.90
52609;DHT22;38503;48.544;12.142;2023-01-25T15:51:53;0.00;99.90
52609;DHT22;38503;48.544;12.142;2023-01-25T15:54:20;0.00;99.90
52609;DHT22;38503;48.544;12.142;2023-01-25T15:56:51;0.00;99.90
52609;DHT22;38503;48.544;12.142;2023-01-25T15:59:19;0.10;99.90
52609;DHT22;38503;48.544;12.142;2023-01-25T16:01:46;0.00;99.90
52609;DHT22;38503;48.544;12.142;2023-01-25T16:04:13;0.00;99.90
52609;DHT22;38503;48.544;12.142;2023-01-25T16:06:48;0.10;99.90
52609;DHT22;38503;48.544;12.142;2023-01-25T16:09:19;0.10;99.90
52609;DHT22;38503;48.544;12.142;2023-01-25T16:11:51;0.00;99.90
52609;DHT22;38503;48.544;12.142;2023-01-25T16:14:19;0.00;99.90
52609;DHT22;38503;48.544;12.142;2023-01-25T16:16:47;0.00;99.90
52609;DHT22;38503;48.544;12.142;2023-01-25T16:19:17;-0.10;99.90
52609;DHT22;38503;48.544;12.142;2023-01-25T16:21:44;-0.10;99.90
52609;DHT22;38503;48.544;12.142;2023-01-25T16:24:14;-0.10;99.90
52609;DHT22;38503;48.544;12.142;2023-01-25T16:26:49;-0.10;99.90
52609;DHT22;38503;48.544;12.142;2023-01-25T16:29:17;0.00;99.90
52609;DHT22;38503;48.544;12.142;2023-01-25T16:31:44;0.00;99.90
52609;DHT22;38503;48.544;12.142;2023-01-25T16:34:11;0.10;99.90
52609;DHT22;38503;48.544;12.142;2023-01-25T16:36:37;0.10;99.90
52609;DHT22;38503;48.544;12.142;2023-01-25T16:39:08;0.10;99.90
52609;DHT22;38503;48.544;12.142;2023-01-25T16:41:38;0.10;99.90
52609;DHT22;38503;48.544;12.142;2023-01-25T16:44:04;0.10;99.90
52609;DHT22;38503;48.544;12.142;2023-01-25T16:46:32;0.00;99.90
52609;DHT22;38503;48.544;12.142;2023-01-25T16:48:59;0.10;99.90
52609;DHT22;38503;48.544;12.142;2023-01-25T16:51:26;0.00;99.90
52609;DHT22;38503;48.544;12.142;2023-01-25T16:53:55;0.00;99.90
52609;DHT22;38503;48.544;12.142;2023-01-25T16:56:25;0.00;99.90
52609;DHT22;38503;48.544;12.142;2023-01-25T16:58:54;-0.10;99.90
52609;DHT22;38503;48.544;12.142;2023-01-25T17:01:22;-0.10;99.90
52609;DHT22;38503;48.544;12.142;2023-01-25T17:03:49;0.00;99.90
52609;DHT22;38503;48.544;12.142;2023-01-25T17:06:18;-0.10;99.90
52609;DHT22;38503;48.544;12.142;2023-01-25T17:08:46;-0.20;99.90
52609;DHT22;38503;48.544;12.142;2023-01-25T17:11:14;-0.20;99.90
52609;DHT22;38503;48.544;12.142;2023-01-25T17:13:41;-0.20;99.90
52609;DHT22;38503;48.544;12.142;2023-01-25T17:16:08;-0.10;99.90
52609;DHT22;38503;48.544;12.142;2023-01-25T17:18:34;-0.10;99.90
52609;DHT22;38503;48.544;12.142;2023-01-25T17:21:05;-0.10;99.90
52609;DHT22;38503;48.544;12.142;2023-01-25T17:23:34;0.00;99.90
52609;DHT22;38503;48.544;12.142;2023-01-25T17:26:09;0.00;99.90
52609;DHT22;38503;48.544;12.142;2023-01-25T17:28:37;0.00;99.90
52609;DHT22;38503;48.544;12.142;2023-01-25T17:31:21;0.00;99.90
52609;DHT22;38503;48.544;12.142;2023-01-25T17:33:49;0.00;99.90
52609;DHT22;38503;48.544;12.142;2023-01-25T17:36:15;-0.10;99.90
52609;DHT22;38503;48.544;12.142;2023-01-25T17:38:42;-0.10;99.90
52609;DHT22;38503;48.544;12.142;2023-01-25T17:41:12;-0.10;99.90
52609;DHT22;38503;48.544;12.142;2023-01-25T17:43:39;-0.10;99.90
52609;DHT22;38503;48.544;12.142;2023-01-25T17:48:38;-0.20;99.90
52609;DHT22;38503;48.544;12.142;2023-01-25T17:51:06;-0.10;99.90
52609;DHT22;38503;48.544;12.142;2023-01-25T17:53:32;-0.10;99.90
52609;DHT22;38503;48.544;12.142;2023-01-25T17:56:04;-0.10;99.90